createdAt,value
2019-04-05T00:01:18.913Z,94438.94
2019-04-05T00:03:51.942Z,94432.75
2019-04-05T00:06:25.202Z,94440.50
2019-04-05T00:08:58.338Z,94434.29
2019-04-05T00:11:31.165Z,94434.36
2019-04-05T00:14:04.070Z,94425.28
2019-04-05T00:16:36.905Z,94426.42
2019-04-05T00:19:11.097Z,94425.72
2019-04-05T00:21:44.196Z,94427.27
2019-04-05T00:24:17.111Z,94424.41
2019-04-05T00:26:49.906Z,94422.49
2019-04-05T00:29:22.703Z,94416.48
2019-04-05T00:31:55.682Z,94418.11
2019-04-05T00:34:28.573Z,94426.98
2019-04-05T00:37:01.383Z,94432.98
2019-04-05T00:39:34.512Z,94431.93
2019-04-05T00:42:07.342Z,94428.45
2019-04-05T00:44:41.347Z,94429.98
2019-04-05T00:47:30.933Z,94427.08
2019-04-05T00:50:04.402Z,94425.29
2019-04-05T00:52:37.443Z,94424.36
2019-04-05T00:55:11.158Z,94433.32
2019-04-05T00:57:44.136Z,94422.95
2019-04-05T01:00:17.882Z,94423.30
2019-04-05T01:02:50.758Z,94424.80
2019-04-05T01:05:22.953Z,94421.31
2019-04-05T01:07:55.212Z,94420.67
2019-04-05T01:10:27.216Z,94422.23
2019-04-05T01:13:00.009Z,94427.20
2019-04-05T01:15:40.807Z,94426.95
2019-04-05T01:18:06.061Z,94432.78
2019-04-05T01:20:40.822Z,94420.31
2019-04-05T01:23:14.916Z,94425.63
2019-04-05T01:25:48.410Z,94422.83
2019-04-05T01:28:20.977Z,94429.48
2019-04-05T01:30:52.969Z,94433.37
2019-04-05T01:33:25.439Z,94427.55
2019-04-05T01:35:57.414Z,94426.04
2019-04-05T01:38:29.778Z,94420.95
2019-04-05T01:41:02.485Z,94418.36
2019-04-05T01:43:34.501Z,94421.55
2019-04-05T01:46:06.918Z,94423.64
2019-04-05T01:48:39.183Z,94421.91
2019-04-05T01:51:11.338Z,94421.37
2019-04-05T01:53:44.010Z,94419.27
2019-04-05T01:56:16.212Z,94421.53
2019-04-05T01:58:48.495Z,94413.44
2019-04-05T02:01:21.076Z,94413.73
2019-04-05T02:03:53.309Z,94413.17
2019-04-05T02:06:26.060Z,94406.70
2019-04-05T02:08:58.237Z,94413.09
2019-04-05T02:11:30.520Z,94416.50
2019-04-05T02:14:02.770Z,94418.85
2019-04-05T02:16:35.258Z,94423.59
2019-04-05T02:19:07.485Z,94422.31
2019-04-05T02:21:39.844Z,94432.27
2019-04-05T02:24:12.221Z,94428.56
2019-04-05T02:26:44.674Z,94429.61
2019-04-05T02:29:16.942Z,94433.91
2019-04-05T02:31:49.067Z,94436.64
2019-04-05T02:34:21.446Z,94435.22
2019-04-05T02:36:53.466Z,94428.80
2019-04-05T02:39:25.532Z,94426.02
2019-04-05T02:41:59.434Z,94427.59
2019-04-05T02:44:34.470Z,94425.25
2019-04-05T02:47:07.562Z,94428.08
2019-04-05T02:49:41.723Z,94422.39
2019-04-05T02:52:17.127Z,94427.39
2019-04-05T02:54:51.445Z,94429.75
2019-04-05T02:57:25.271Z,94427.98
2019-04-05T02:59:58.235Z,94421.16
2019-04-05T03:02:32.165Z,94431.52
2019-04-05T03:05:04.408Z,94429.22
2019-04-05T03:07:36.704Z,94429.66
2019-04-05T03:10:09.405Z,94424.52
2019-04-05T03:12:41.918Z,94423.34
2019-04-05T03:15:14.751Z,94424.42
2019-04-05T03:17:47.274Z,94430.19
2019-04-05T03:20:19.790Z,94424.98
2019-04-05T03:22:52.064Z,94421.52
2019-04-05T03:25:24.494Z,94416.93
2019-04-05T03:27:57.100Z,94422.05
2019-04-05T03:30:29.592Z,94419.22
2019-04-05T03:33:02.261Z,94420.04
2019-04-05T03:35:34.520Z,94421.12
2019-04-05T03:38:07.555Z,94427.67
2019-04-05T03:40:40.509Z,94436.29
2019-04-05T03:43:13.386Z,94435.09
2019-04-05T03:45:46.507Z,94427.81
2019-04-05T03:48:19.105Z,94439.30
2019-04-05T03:50:51.577Z,94439.55
2019-04-05T03:53:24.436Z,94442.02
2019-04-05T03:55:57.447Z,94440.30
2019-04-05T03:58:30.479Z,94438.20
2019-04-05T04:01:03.476Z,94438.75
2019-04-05T04:03:36.352Z,94437.75
2019-04-05T04:06:08.885Z,94445.84
2019-04-05T04:08:42.259Z,94448.39
2019-04-05T04:11:14.511Z,94444.38
2019-04-05T04:13:47.352Z,94436.16
2019-04-05T04:16:20.193Z,94443.25
2019-04-05T04:18:53.035Z,94443.41
2019-04-05T04:21:40.774Z,94443.41
2019-04-05T04:24:13.332Z,94445.55
2019-04-05T04:26:46.270Z,94446.88
2019-04-05T04:29:19.917Z,94450.42
2019-04-05T04:31:53.141Z,94442.42
2019-04-05T04:34:25.557Z,94443.19
2019-04-05T04:36:57.855Z,94445.86
2019-04-05T04:39:30.506Z,94446.65
2019-04-05T04:42:04.978Z,94449.77
2019-04-05T04:44:37.652Z,94458.19
2019-04-05T04:47:10.153Z,94454.78
2019-04-05T04:49:43.090Z,94456.15
2019-04-05T04:52:16.589Z,94455.11
2019-04-05T04:54:48.984Z,94458.66
2019-04-05T04:57:21.433Z,94448.70
2019-04-05T04:59:54.478Z,94451.64
2019-04-05T05:02:27.409Z,94447.09
2019-04-05T05:05:00.364Z,94457.22
2019-04-05T05:07:33.150Z,94453.47
2019-04-05T05:10:06.666Z,94455.89
2019-04-05T05:12:39.647Z,94457.97
2019-04-05T05:15:13.030Z,94468.52
2019-04-05T05:17:57.996Z,94458.41
2019-04-05T05:20:21.034Z,94459.00
2019-04-05T05:22:54.303Z,94457.72
2019-04-05T05:25:27.173Z,94452.37
2019-04-05T05:28:00.440Z,94452.91
2019-04-05T05:30:33.157Z,94447.17
2019-04-05T05:33:06.157Z,94444.61
2019-04-05T05:35:38.944Z,94436.35
2019-04-05T05:38:11.579Z,94437.63
2019-04-05T05:40:44.111Z,94435.75
2019-04-05T05:43:17.030Z,94440.36
2019-04-05T05:45:49.458Z,94429.72
2019-04-05T05:48:22.234Z,94434.34
2019-04-05T05:50:55.550Z,94436.35
2019-04-05T05:53:29.064Z,94435.95
2019-04-05T05:56:01.496Z,94432.97
2019-04-05T05:58:33.864Z,94434.59
2019-04-05T06:01:07.203Z,94436.22
2019-04-05T06:03:39.598Z,94434.39
2019-04-05T06:06:11.878Z,94431.60
2019-04-05T06:08:44.389Z,94429.32
2019-04-05T06:11:16.940Z,94439.66
2019-04-05T06:13:49.609Z,94434.66
2019-04-05T06:16:21.990Z,94432.20
2019-04-05T06:18:54.301Z,94432.42
2019-04-05T06:21:26.897Z,94424.94
2019-04-05T06:23:59.517Z,94428.86
2019-04-05T06:26:31.907Z,94433.36
2019-04-05T06:29:04.571Z,94430.30
2019-04-05T06:31:39.013Z,94427.64
2019-04-05T06:34:11.655Z,94429.19
2019-04-05T06:36:44.287Z,94424.42
2019-04-05T06:39:16.854Z,94419.41
2019-04-05T06:41:49.136Z,94419.42
2019-04-05T06:44:21.920Z,94404.84
2019-04-05T06:46:54.323Z,94410.01
2019-04-05T06:49:26.710Z,94418.52
2019-04-05T06:51:59.019Z,94420.19
2019-04-05T06:54:33.687Z,94427.22
2019-04-05T06:57:06.273Z,94425.41
2019-04-05T06:59:38.681Z,94429.20
2019-04-05T07:02:10.980Z,94423.42
2019-04-05T07:04:43.463Z,94423.33
2019-04-05T07:07:17.862Z,94423.42
2019-04-05T07:09:49.675Z,94416.63
2019-04-05T07:12:22.485Z,94422.02
2019-04-05T07:14:56.313Z,94414.36
2019-04-05T07:17:29.239Z,94417.55
2019-04-05T07:20:01.638Z,94419.33
2019-04-05T07:22:39.165Z,94418.08
2019-04-05T07:25:08.587Z,94421.40
2019-04-05T07:27:41.118Z,94417.93
2019-04-05T07:30:14.459Z,94422.92
2019-04-05T07:32:47.005Z,94420.79
2019-04-05T07:35:32.665Z,94424.05
2019-04-05T07:37:53.608Z,94425.16
2019-04-05T07:40:26.473Z,94435.10
2019-04-05T07:42:59.118Z,94430.20
2019-04-05T07:45:31.526Z,94430.69
2019-04-05T07:48:03.982Z,94430.04
2019-04-05T07:50:39.196Z,94427.92
2019-04-05T07:53:11.881Z,94429.25
2019-04-05T07:55:47.480Z,94428.71
2019-04-05T07:58:20.667Z,94429.11
2019-04-05T08:00:56.198Z,94430.57
2019-04-05T08:03:28.909Z,94417.08
2019-04-05T08:06:01.726Z,94410.58
2019-04-05T08:09:13.116Z,94405.87
2019-04-05T08:11:47.880Z,94403.89
2019-04-05T08:14:22.581Z,94396.61
2019-04-05T08:16:55.384Z,94394.24
2019-04-05T08:19:28.260Z,94395.15
2019-04-05T08:22:00.986Z,94388.27
2019-04-05T08:24:33.607Z,94388.96
2019-04-05T08:27:06.206Z,94386.03
2019-04-05T08:32:39.568Z,94391.23
2019-04-05T08:35:13.256Z,94375.77
2019-04-05T08:37:46.455Z,94380.41
2019-04-05T08:40:19.832Z,94374.20
2019-04-05T08:42:53.320Z,94364.21
2019-04-05T08:45:27.053Z,94369.09
2019-04-05T08:48:00.383Z,94353.50
2019-04-05T08:50:33.632Z,94353.32
2019-04-05T08:53:07.655Z,94351.72
2019-04-05T08:55:40.953Z,94351.28
2019-04-05T08:58:14.491Z,94350.95
2019-04-05T09:00:48.039Z,94350.85
2019-04-05T09:03:21.531Z,94342.69
2019-04-05T09:05:55.244Z,94350.22
2019-04-05T09:08:32.108Z,94347.41
2019-04-05T09:11:06.059Z,94334.64
2019-04-05T09:13:39.332Z,94330.52
2019-04-05T09:16:13.092Z,94344.90
2019-04-05T09:18:49.393Z,94343.56
2019-04-05T09:21:24.124Z,94341.33
2019-04-05T09:23:59.329Z,94342.22
2019-04-05T09:26:32.533Z,94339.38
2019-04-05T09:29:05.871Z,94341.38
2019-04-05T09:31:39.077Z,94336.46
2019-04-05T09:34:12.443Z,94342.59
2019-04-05T09:36:45.995Z,94344.45
2019-04-05T09:39:19.572Z,94349.14
2019-04-05T09:41:52.921Z,94354.08
2019-04-05T09:44:26.037Z,94354.05
2019-04-05T09:47:00.666Z,94342.98
2019-04-05T09:49:37.011Z,94343.13
2019-04-05T09:52:08.736Z,94347.42
2019-04-05T09:54:42.133Z,94346.69
2019-04-05T09:57:15.803Z,94340.09
2019-04-05T09:59:49.148Z,94342.00
2019-04-05T10:02:22.796Z,94339.64
2019-04-05T10:04:56.205Z,94329.85
2019-04-05T10:07:29.549Z,94335.20
2019-04-05T10:10:02.669Z,94342.31
2019-04-05T10:12:35.605Z,94336.66
2019-04-05T10:15:26.987Z,94342.27
2019-04-05T10:18:17.880Z,94328.72
2019-04-05T10:21:08.767Z,94332.13
2019-04-05T10:23:59.722Z,94339.28
2019-04-05T10:26:50.795Z,94328.12
2019-04-05T10:29:42.090Z,94325.33
2019-04-05T10:32:33.290Z,94329.13
2019-04-05T10:35:24.374Z,94337.65
2019-04-05T10:38:20.717Z,94327.95
2019-04-05T10:41:11.635Z,94339.23
2019-04-05T10:44:02.846Z,94336.64
2019-04-05T10:46:54.076Z,94344.14
2019-04-05T10:49:45.177Z,94332.23
2019-04-05T10:52:36.210Z,94330.17
2019-04-05T10:55:27.490Z,94331.53
2019-04-05T10:58:18.626Z,94337.55
2019-04-05T11:01:09.875Z,94337.87
2019-04-05T11:04:01.315Z,94326.78
2019-04-05T11:06:52.883Z,94323.02
2019-04-05T11:09:44.075Z,94335.69
2019-04-05T11:12:35.437Z,94326.61
2019-04-05T11:15:26.478Z,94316.80
2019-04-05T11:18:17.429Z,94313.50
2019-04-05T11:21:08.497Z,94306.80
2019-04-05T11:24:00.183Z,94306.17
2019-04-05T11:26:33.395Z,94306.64
2019-04-05T11:29:06.839Z,94315.91
2019-04-05T11:31:40.624Z,94308.19
2019-04-05T11:34:14.698Z,94302.45
2019-04-05T11:36:48.490Z,94296.41
2019-04-05T11:39:22.726Z,94299.18
2019-04-05T11:41:59.579Z,94294.73
2019-04-05T11:44:34.895Z,94295.82
2019-04-05T11:47:08.285Z,94291.45
2019-04-05T11:49:46.054Z,94282.24
2019-04-05T11:52:19.752Z,94274.77
2019-04-05T11:54:52.917Z,94274.91
2019-04-05T11:57:26.334Z,94276.25
2019-04-05T11:59:59.348Z,94268.65
2019-04-05T12:02:38.039Z,94270.47
2019-04-05T12:05:13.838Z,94269.06
2019-04-05T12:07:47.339Z,94273.00
2019-04-05T12:10:21.224Z,94273.66
2019-04-05T12:12:54.556Z,94271.28
2019-04-05T12:15:28.545Z,94266.67
2019-04-05T12:18:04.242Z,94261.96
2019-04-05T12:20:47.903Z,94257.78
2019-04-05T12:23:12.028Z,94251.41
2019-04-05T12:25:45.259Z,94250.80
2019-04-05T12:28:18.416Z,94244.75
2019-04-05T12:30:51.883Z,94246.30
2019-04-05T12:33:25.064Z,94240.49
2019-04-05T12:35:58.642Z,94238.30
2019-04-05T12:38:50.051Z,94225.27
2019-04-05T12:41:23.746Z,94233.25
2019-04-05T12:43:57.152Z,94223.48
2019-04-05T12:46:30.815Z,94212.55
2019-04-05T12:49:04.455Z,94207.45
2019-04-05T12:51:38.077Z,94202.56
2019-04-05T12:54:11.643Z,94199.63
2019-04-05T12:56:45.083Z,94203.18
2019-04-05T12:59:25.182Z,94202.80
2019-04-05T13:01:59.539Z,94192.53
2019-04-05T13:04:32.143Z,94188.70
2019-04-05T13:07:05.592Z,94184.86
2019-04-05T13:09:39.217Z,94183.60
2019-04-05T13:12:12.462Z,94181.20
2019-04-05T13:14:45.883Z,94183.55
2019-04-05T13:17:19.112Z,94177.13
2019-04-05T13:19:52.518Z,94174.53
2019-04-05T13:22:25.906Z,94177.98
2019-04-05T13:24:59.886Z,94179.19
2019-04-05T13:27:33.291Z,94171.13
2019-04-05T13:30:07.185Z,94174.23
2019-04-05T13:32:40.534Z,94178.37
2019-04-05T13:35:16.888Z,94164.73
2019-04-05T13:37:50.658Z,94162.02
2019-04-05T13:40:25.099Z,94159.74
2019-04-05T13:43:01.387Z,94150.19
2019-04-05T13:45:34.307Z,94150.48
2019-04-05T13:48:08.960Z,94149.32
2019-04-05T13:50:43.252Z,94150.34
2019-04-05T13:53:16.886Z,94148.70
2019-04-05T13:55:50.110Z,94145.89
2019-04-05T13:58:26.162Z,94144.23
2019-04-05T14:00:58.139Z,94140.53
2019-04-05T14:03:31.352Z,94146.06
2019-04-05T14:06:05.088Z,94139.55
2019-04-05T14:08:41.161Z,94134.47
2019-04-05T14:11:13.369Z,94138.44
2019-04-05T14:13:46.794Z,94130.91
2019-04-05T14:16:23.401Z,94132.37
2019-04-05T14:18:56.558Z,94127.86
2019-04-05T14:21:39.766Z,94130.84
2019-04-05T14:24:04.608Z,94126.44
2019-04-05T14:26:39.705Z,94131.41
2019-04-05T14:29:12.740Z,94130.53
2019-04-05T14:31:45.990Z,94132.32
2019-04-05T14:34:19.465Z,94133.36
2019-04-05T14:36:52.972Z,94131.58
2019-04-05T14:39:26.401Z,94132.09
2019-04-05T14:42:09.491Z,94126.38
2019-04-05T14:44:34.915Z,94121.84
2019-04-05T14:47:08.964Z,94124.83
2019-04-05T14:49:42.177Z,94118.30
2019-04-05T14:52:15.731Z,94116.53
2019-04-05T14:54:49.318Z,94116.37
2019-04-05T14:57:22.695Z,94114.61
2019-04-05T14:59:56.355Z,94107.00
2019-04-05T15:02:30.150Z,94113.69
2019-04-05T15:05:04.719Z,94112.42
2019-04-05T15:07:41.685Z,94108.52
2019-04-05T15:10:15.242Z,94106.17
2019-04-05T15:12:49.190Z,94103.56
2019-04-05T15:15:22.941Z,94108.84
2019-04-05T15:17:56.454Z,94107.25
2019-04-05T15:20:29.594Z,94106.34
2019-04-05T15:23:02.775Z,94106.92
2019-04-05T15:25:36.682Z,94101.37
2019-04-05T15:28:09.805Z,94100.19
2019-04-05T15:30:43.200Z,94097.02
2019-04-05T15:33:16.429Z,94092.10
2019-04-05T15:35:50.166Z,94093.89
2019-04-05T15:38:23.871Z,94086.21
2019-04-05T15:40:57.601Z,94091.60
2019-04-05T15:43:30.699Z,94081.70
2019-04-05T15:46:03.957Z,94093.23
2019-04-05T15:48:37.487Z,94094.66
2019-04-05T15:51:11.443Z,94096.56
2019-04-05T15:53:44.522Z,94095.81
2019-04-05T15:56:17.591Z,94090.53
2019-04-05T15:58:52.419Z,94087.96
2019-04-05T16:01:36.977Z,94087.38
2019-04-05T16:04:10.108Z,94088.34
2019-04-05T16:06:43.859Z,94084.12
2019-04-05T16:09:18.949Z,94086.86
2019-04-05T16:11:52.120Z,94089.69
2019-04-05T16:14:25.566Z,94089.36
2019-04-05T16:16:58.631Z,94093.84
2019-04-05T16:19:31.818Z,94092.25
2019-04-05T16:22:05.116Z,94091.06
2019-04-05T16:24:38.871Z,94093.64
2019-04-05T16:27:12.271Z,94090.16
2019-04-05T16:29:45.853Z,94088.94
2019-04-05T16:32:19.012Z,94093.77
2019-04-05T16:34:52.070Z,94094.49
2019-04-05T16:37:25.088Z,94097.27
2019-04-05T16:39:58.617Z,94097.09
2019-04-05T16:42:33.804Z,94098.55
2019-04-05T16:45:11.546Z,94102.13
2019-04-05T16:47:45.208Z,94102.78
2019-04-05T16:50:21.380Z,94106.88
2019-04-05T16:52:54.132Z,94110.59
2019-04-05T16:55:27.567Z,94107.91
2019-04-05T16:58:00.926Z,94108.26
2019-04-05T17:00:34.683Z,94106.84
2019-04-05T17:03:08.226Z,94109.20
2019-04-05T17:05:42.199Z,94105.36
2019-04-05T17:08:15.696Z,94105.30
2019-04-05T17:10:49.489Z,94102.55
2019-04-05T17:13:25.826Z,94101.43
2019-04-05T17:16:00.867Z,94099.38
2019-04-05T17:18:36.603Z,94097.94
2019-04-05T17:21:10.558Z,94103.29
2019-04-05T17:23:47.280Z,94099.63
2019-04-05T17:26:20.868Z,94105.80
2019-04-05T17:28:57.722Z,94105.42
2019-04-05T17:31:30.878Z,94100.66
2019-04-05T17:34:05.859Z,94104.27
2019-04-05T17:36:39.731Z,94104.13
2019-04-05T17:39:13.289Z,94108.75
2019-04-05T17:41:46.601Z,94104.96
2019-04-05T17:44:20.099Z,94113.69
2019-04-05T17:46:55.995Z,94120.30
2019-04-05T17:49:29.341Z,94118.92
2019-04-05T17:52:03.198Z,94118.41
2019-04-05T17:54:37.195Z,94120.37
2019-04-05T17:57:11.041Z,94122.88
2019-04-05T17:59:44.716Z,94129.20
2019-04-05T18:02:18.431Z,94130.16
2019-04-05T18:04:56.580Z,94137.48
2019-04-05T18:07:34.188Z,94133.45
2019-04-05T18:10:10.479Z,94132.19
2019-04-05T18:13:07.901Z,94129.05
2019-04-05T18:15:52.369Z,94127.05
2019-04-05T18:18:27.383Z,94128.52
2019-04-05T18:21:01.569Z,94132.63
2019-04-05T18:23:39.473Z,94133.68
2019-04-05T18:26:19.257Z,94131.47
2019-04-05T18:28:59.225Z,94131.38
2019-04-05T18:31:35.108Z,94127.55
2019-04-05T18:34:11.377Z,94126.16
2019-04-05T18:36:49.725Z,94120.48
2019-04-05T18:39:28.160Z,94121.88
2019-04-05T18:42:06.795Z,94116.70
2019-04-05T18:44:45.353Z,94116.63
2019-04-05T18:47:30.048Z,94112.97
2019-04-05T18:50:17.150Z,94111.80
2019-04-05T18:52:54.571Z,94120.00
2019-04-05T18:55:33.939Z,94113.14
2019-04-05T18:58:12.129Z,94114.20
2019-04-05T19:00:51.834Z,94107.91
2019-04-05T19:03:31.609Z,94109.20
2019-04-05T19:06:05.285Z,94107.30
2019-04-05T19:08:42.336Z,94109.53
2019-04-05T19:11:20.958Z,94108.94
2019-04-05T19:14:01.702Z,94104.99
2019-04-05T19:16:38.950Z,94097.85
2019-04-05T19:19:21.546Z,94099.85
2019-04-05T19:21:58.125Z,94101.90
2019-04-05T19:24:34.525Z,94098.47
2019-04-05T19:27:23.351Z,94100.92
2019-04-05T19:48:45.000Z,94109.78
2019-04-05T19:51:18.860Z,94112.14
2019-04-05T19:54:01.240Z,94111.57
2019-04-05T19:56:34.193Z,94116.13
2019-04-05T19:59:11.800Z,94124.13
2019-04-05T20:01:52.211Z,94119.08
2019-04-05T20:04:35.291Z,94115.84
2019-04-05T20:07:10.636Z,94127.77
2019-04-05T20:09:51.367Z,94128.10
2019-04-05T20:12:28.013Z,94131.66
2019-04-05T20:15:06.760Z,94137.10
2019-04-05T20:17:46.596Z,94140.06
2019-04-05T20:20:24.907Z,94138.16
2019-04-05T20:23:05.385Z,94139.07
2019-04-05T20:25:45.403Z,94140.66
2019-04-05T20:28:23.625Z,94141.42
2019-04-05T20:31:02.302Z,94149.40
2019-04-05T20:33:43.974Z,94153.91
2019-04-05T20:36:19.941Z,94153.65
2019-04-05T20:39:00.415Z,94153.58
2019-04-05T20:41:39.478Z,94157.74
2019-04-05T20:44:32.625Z,94154.75
2019-04-05T20:47:06.423Z,94156.25
2019-04-05T20:49:41.443Z,94156.27
2019-04-05T20:52:14.654Z,94152.30
2019-04-05T20:54:49.599Z,94157.91
2019-04-05T20:57:26.481Z,94160.66
2019-04-05T21:00:00.193Z,94170.22
2019-04-05T21:02:33.461Z,94169.06
2019-04-05T21:05:07.373Z,94171.34
2019-04-05T21:07:40.561Z,94165.91
2019-04-05T21:10:14.532Z,94168.48
2019-04-05T21:12:47.795Z,94173.44
2019-04-05T21:15:21.247Z,94178.55
2019-04-05T21:17:54.723Z,94177.41
2019-04-05T21:20:28.314Z,94179.34
2019-04-05T21:23:01.638Z,94188.64
2019-04-05T21:25:35.188Z,94187.38
2019-04-05T21:28:08.956Z,94189.25
2019-04-05T21:30:42.651Z,94190.61
2019-04-05T21:33:17.035Z,94190.23
2019-04-05T21:35:52.518Z,94185.93
2019-04-05T21:38:25.744Z,94184.45
2019-04-05T21:40:59.384Z,94188.41
2019-04-05T21:43:33.480Z,94191.32
2019-04-05T21:46:07.123Z,94192.86
2019-04-05T21:48:40.239Z,94187.72
2019-04-05T21:51:13.641Z,94184.39
2019-04-05T21:53:47.511Z,94187.52
2019-04-05T21:56:20.933Z,94186.75
2019-04-05T21:58:54.441Z,94190.41
2019-04-05T22:01:27.811Z,94195.47
2019-04-05T22:04:01.304Z,94193.02
2019-04-05T22:06:36.391Z,94198.79
2019-04-05T22:09:11.587Z,94199.64
2019-04-05T22:11:44.506Z,94193.39
2019-04-05T22:14:17.845Z,94195.89
2019-04-05T22:16:51.045Z,94197.02
2019-04-05T22:19:24.239Z,94196.98
2019-04-05T22:21:57.984Z,94199.81
2019-04-05T22:24:31.221Z,94208.00
2019-04-05T22:27:04.434Z,94212.05
2019-04-05T22:29:37.459Z,94205.77
2019-04-05T22:32:11.621Z,94200.72
2019-04-05T22:34:46.441Z,94202.56
2019-04-05T22:37:21.237Z,94199.73
2019-04-05T22:39:54.367Z,94205.84
2019-04-05T22:42:27.567Z,94207.98
2019-04-05T22:45:01.186Z,94211.77
2019-04-05T22:47:41.012Z,94208.56
2019-04-05T22:50:18.032Z,94205.72
2019-04-05T22:52:54.843Z,94203.81
2019-04-05T22:55:44.673Z,94212.45
2019-04-05T22:58:19.768Z,94213.28
2019-04-05T23:00:52.845Z,94215.89
2019-04-05T23:03:32.638Z,94208.67
2019-04-05T23:06:09.359Z,94200.53
2019-04-05T23:08:45.370Z,94195.38
2019-04-05T23:11:21.844Z,94203.63
2019-04-05T23:13:57.944Z,94205.58
2019-04-05T23:16:35.917Z,94200.09
2019-04-05T23:19:15.321Z,94201.67
2019-04-05T23:21:54.867Z,94203.72
2019-04-05T23:24:34.713Z,94200.97
2019-04-05T23:27:09.836Z,94207.69
2019-04-05T23:29:49.768Z,94216.64
2019-04-05T23:32:29.327Z,94215.91
2019-04-05T23:35:08.066Z,94212.75
2019-04-05T23:37:45.918Z,94211.94
2019-04-05T23:40:39.466Z,94207.70
2019-04-05T23:43:19.184Z,94207.38
2019-04-05T23:45:56.455Z,94212.45
2019-04-05T23:48:30.726Z,94210.42
2019-04-05T23:51:10.469Z,94214.42
2019-04-05T23:53:47.104Z,94219.03
2019-04-05T23:56:26.057Z,94215.52
2019-04-05T23:59:01.989Z,94210.38
